Time;durP1;ratioP1;P1;durP2;ratioP2;P2;SDS_P1;SDS_P2;PMS_P1;PMS_P2;Temp;Humidity;BMP_temperature;BMP_pressure;BME280_temperature;BME280_humidity;BME280_pressure;Samples;Min_cycle;Max_cycle;Signal;HPM_P1;HPM_P2
2023/11/25 00:00:26;;;;;;;11.93;7.00;;;;;;;;;;5070806;28;20017;-52
2023/11/25 00:02:52;;;;;;;12.00;7.00;;;;;;;;;;5071797;28;20032;-51
2023/11/25 00:05:19;;;;;;;13.68;6.95;;;;;;;;;;5071476;28;20506;-50
2023/11/25 00:07:45;;;;;;;19.05;8.38;;;;;;;;;;5072126;28;20494;-48
2023/11/25 00:10:12;;;;;;;11.57;6.70;;;;;;;;;;5070169;28;20025;-51
2023/11/25 00:12:38;;;;;;;11.25;6.60;;;;;;;;;;5072318;28;20539;-49
2023/11/25 00:15:04;;;;;;;12.45;7.43;;;;;;;;;;5072802;28;20123;-49
2023/11/25 00:17:31;;;;;;;11.90;6.90;;;;;;;;;;5071806;28;20029;-52
2023/11/25 00:20:00;;;;;;;12.00;6.90;;;;;;;;;;5071918;28;20028;-50
2023/11/25 00:22:26;;;;;;;11.60;6.70;;;;;;;;;;5071405;28;20035;-50
2023/11/25 00:24:52;;;;;;;11.65;6.78;;;;;;;;;;5071300;28;20119;-50
2023/11/25 00:27:18;;;;;;;12.13;7.10;;;;;;;;;;5072799;28;20534;-50
2023/11/25 00:29:44;;;;;;;19.55;7.15;;;;;;;;;;5072439;28;20436;-50
2023/11/25 00:32:11;;;;;;;12.30;7.45;;;;;;;;;;5071977;28;20024;-49
2023/11/25 00:34:37;;;;;;;12.73;7.57;;;;;;;;;;5072492;28;20052;-51
2023/11/25 00:37:04;;;;;;;11.88;6.90;;;;;;;;;;5070869;28;20077;-51
2023/11/25 00:39:30;;;;;;;12.13;7.07;;;;;;;;;;5071977;28;20070;-47
2023/11/25 00:41:58;;;;;;;12.55;7.35;;;;;;;;;;5071533;28;20028;-48
2023/11/25 00:44:24;;;;;;;11.88;6.95;;;;;;;;;;5070833;28;20086;-52
2023/11/25 00:46:50;;;;;;;11.77;6.80;;;;;;;;;;5072089;28;20025;-50
2023/11/25 00:49:16;;;;;;;11.20;6.53;;;;;;;;;;5071803;28;20032;-50
2023/11/25 00:51:42;;;;;;;11.65;6.85;;;;;;;;;;5070423;28;20032;-49
2023/11/25 00:54:08;;;;;;;10.60;6.30;;;;;;;;;;5070665;28;20478;-48
2023/11/25 00:56:35;;;;;;;10.85;6.35;;;;;;;;;;5071690;28;20405;-52
2023/11/25 00:59:01;;;;;;;11.40;6.82;;;;;;;;;;5071765;28;20467;-48
2023/11/25 01:01:27;;;;;;;10.40;6.10;;;;;;;;;;5071290;28;20158;-51
2023/11/25 01:03:53;;;;;;;10.10;5.93;;;;;;;;;;5071723;28;20040;-53
2023/11/25 01:06:20;;;;;;;10.60;6.20;;;;;;;;;;5071678;28;20446;-49
2023/11/25 01:08:46;;;;;;;11.07;6.55;;;;;;;;;;5071666;28;20021;-49
2023/11/25 01:11:12;;;;;;;10.93;6.40;;;;;;;;;;5069784;28;20378;-52
2023/11/25 01:13:38;;;;;;;10.55;6.18;;;;;;;;;;5071697;28;20025;-49
2023/11/25 01:16:04;;;;;;;11.20;6.80;;;;;;;;;;5071787;28;20038;-52
2023/11/25 01:18:30;;;;;;;10.50;6.13;;;;;;;;;;5071902;28;20035;-49
2023/11/25 01:20:57;;;;;;;10.57;6.18;;;;;;;;;;5070382;28;20025;-51
2023/11/25 01:23:25;;;;;;;11.68;6.40;;;;;;;;;;5072025;28;20028;-51
2023/11/25 01:25:51;;;;;;;10.40;6.07;;;;;;;;;;5071746;28;20081;-51
2023/11/25 01:28:17;;;;;;;10.02;5.90;;;;;;;;;;5071075;28;20743;-48
2023/11/25 01:30:43;;;;;;;9.93;5.80;;;;;;;;;;5070756;28;20017;-53
2023/11/25 01:33:09;;;;;;;10.20;6.00;;;;;;;;;;5071608;28;20048;-51
2023/11/25 01:35:38;;;;;;;10.55;6.10;;;;;;;;;;5071420;28;20032;-48
2023/11/25 01:38:04;;;;;;;;;;;;;;;;;;5071941;28;20100;-48
2023/11/25 01:40:30;;;;;;;9.90;5.80;;;;;;;;;;5069442;28;20042;-52
2023/11/25 01:42:57;;;;;;;10.73;6.30;;;;;;;;;;5071419;28;20408;-53
2023/11/25 01:45:24;;;;;;;10.38;6.10;;;;;;;;;;5071228;28;20025;-49
2023/11/25 01:47:50;;;;;;;24.73;6.40;;;;;;;;;;5070012;28;20107;-47
2023/11/25 01:50:18;;;;;;;9.85;5.80;;;;;;;;;;5070624;28;20020;-50
2023/11/25 01:52:45;;;;;;;9.95;5.82;;;;;;;;;;5071333;28;20048;-52
2023/11/25 01:55:11;;;;;;;10.00;5.85;;;;;;;;;;5070849;28;20431;-54
2023/11/25 01:57:37;;;;;;;11.95;5.97;;;;;;;;;;5070988;28;20028;-52
2023/11/25 02:00:07;;;;;;;10.50;6.30;;;;;;;;;;5070084;28;20486;-51
2023/11/25 02:02:37;;;;;;;10.93;6.63;;;;;;;;;;5071147;28;20068;-53
2023/11/25 02:05:03;;;;;;;10.30;6.00;;;;;;;;;;5070718;28;20674;-49
2023/11/25 02:07:29;;;;;;;10.15;5.90;;;;;;;;;;5069720;28;20101;-51
2023/11/25 02:09:56;;;;;;;9.80;5.70;;;;;;;;;;5068656;28;20054;-51
2023/11/25 02:12:22;;;;;;;10.77;6.00;;;;;;;;;;5071016;28;20039;-48
2023/11/25 02:14:48;;;;;;;15.98;8.25;;;;;;;;;;5071522;28;20028;-49
2023/11/25 02:17:15;;;;;;;10.02;5.85;;;;;;;;;;5072553;28;20036;-51
2023/11/25 02:19:44;;;;;;;10.35;6.05;;;;;;;;;;5071552;28;20038;-48
2023/11/25 02:22:10;;;;;;;21.70;6.72;;;;;;;;;;5071180;28;20070;-53
2023/11/25 02:24:39;;;;;;;11.35;6.45;;;;;;;;;;5072572;28;20032;-52
2023/11/25 02:27:05;;;;;;;10.90;6.60;;;;;;;;;;5072806;28;20023;-47
2023/11/25 02:29:32;;;;;;;10.55;6.20;;;;;;;;;;5072731;28;20462;-52
2023/11/25 02:31:59;;;;;;;16.55;8.45;;;;;;;;;;5071341;28;20490;-49
2023/11/25 02:34:29;;;;;;;11.40;6.45;;;;;;;;;;5072822;28;20029;-50
2023/11/25 02:36:55;;;;;;;10.98;6.53;;;;;;;;;;5071214;28;20027;-49
2023/11/25 02:39:22;;;;;;;10.25;5.97;;;;;;;;;;5072048;28;20397;-50
2023/11/25 02:41:49;;;;;;;10.40;6.07;;;;;;;;;;5071728;28;20040;-52
2023/11/25 02:44:16;;;;;;;10.57;6.20;;;;;;;;;;5072807;28;20051;-54
2023/11/25 02:46:45;;;;;;;10.48;6.10;;;;;;;;;;5072283;28;20027;-52
2023/11/25 02:49:12;;;;;;;13.35;7.03;;;;;;;;;;5071963;28;20084;-53
2023/11/25 02:51:38;;;;;;;13.43;6.53;;;;;;;;;;5072171;28;20075;-51
2023/11/25 02:54:07;;;;;;;10.48;6.38;;;;;;;;;;5072372;28;20024;-51
2023/11/25 02:56:35;;;;;;;10.30;6.00;;;;;;;;;;5070482;28;20037;-51
2023/11/25 02:59:01;;;;;;;13.60;6.75;;;;;;;;;;5070699;28;20046;-51
2023/11/25 03:01:29;;;;;;;10.10;5.97;;;;;;;;;;5069860;28;20043;-52
2023/11/25 03:03:59;;;;;;;10.07;5.90;;;;;;;;;;5070524;28;20155;-48
2023/11/25 03:06:26;;;;;;;10.70;6.13;;;;;;;;;;5070512;28;20107;-50
2023/11/25 03:08:53;;;;;;;12.48;6.55;;;;;;;;;;5070525;28;20021;-49
2023/11/25 03:11:20;;;;;;;10.57;6.13;;;;;;;;;;5069980;28;20036;-48
2023/11/25 03:13:46;;;;;;;11.77;7.03;;;;;;;;;;5070516;28;20205;-48
2023/11/25 03:16:13;;;;;;;9.80;5.68;;;;;;;;;;5070554;28;20756;-52
2023/11/25 03:18:39;;;;;;;10.07;5.90;;;;;;;;;;5069240;28;20051;-50
2023/11/25 03:21:06;;;;;;;10.00;5.88;;;;;;;;;;5069480;28;20116;-48
2023/11/25 03:23:32;;;;;;;13.48;6.93;;;;;;;;;;5070679;28;20020;-47
2023/11/25 03:25:58;;;;;;;10.25;6.00;;;;;;;;;;5070399;28;20021;-49
2023/11/25 03:28:25;;;;;;;26.17;6.55;;;;;;;;;;5070804;28;20021;-54
2023/11/25 03:30:51;;;;;;;10.50;6.20;;;;;;;;;;5069254;28;20032;-52
2023/11/25 03:33:17;;;;;;;14.02;6.95;;;;;;;;;;5068488;28;20038;-51
2023/11/25 03:35:43;;;;;;;9.65;5.65;;;;;;;;;;5069674;28;20717;-52
2023/11/25 03:38:09;;;;;;;10.90;6.30;;;;;;;;;;5069636;28;20017;-46
2023/11/25 03:40:35;;;;;;;9.30;5.50;;;;;;;;;;5069170;28;20475;-48
2023/11/25 03:43:01;;;;;;;9.10;5.40;;;;;;;;;;5068418;28;20024;-52
2023/11/25 03:45:27;;;;;;;9.63;5.88;;;;;;;;;;5070116;28;20024;-48
2023/11/25 03:47:53;;;;;;;9.10;5.38;;;;;;;;;;5069953;28;20023;-48
2023/11/25 03:50:19;;;;;;;9.23;5.47;;;;;;;;;;5067686;28;20024;-49
2023/11/25 03:52:45;;;;;;;9.10;5.38;;;;;;;;;;5071917;28;20028;-50
2023/11/25 03:55:12;;;;;;;9.40;5.50;;;;;;;;;;5073105;28;20036;-50
2023/11/25 03:57:38;;;;;;;14.80;6.80;;;;;;;;;;5073703;28;20028;-48
2023/11/25 04:00:14;;;;;;;9.07;5.35;;;;;;;;;;5072854;28;20029;-50
2023/11/25 04:02:40;;;;;;;8.70;5.10;;;;;;;;;;5074555;28;20103;-53
2023/11/25 04:05:06;;;;;;;9.68;5.40;;;;;;;;;;5074583;28;20028;-50
2023/11/25 04:07:32;;;;;;;10.70;5.95;;;;;;;;;;5074015;28;20027;-53
2023/11/25 04:09:58;;;;;;;9.10;5.35;;;;;;;;;;5075030;28;20085;-49
2023/11/25 04:12:24;;;;;;;10.57;5.50;;;;;;;;;;5075264;28;20029;-51
2023/11/25 04:14:50;;;;;;;9.10;5.40;;;;;;;;;;5075045;28;20024;-47
2023/11/25 04:17:17;;;;;;;11.40;7.35;;;;;;;;;;5075971;28;20523;-52
2023/11/25 04:19:43;;;;;;;15.93;6.55;;;;;;;;;;5075511;28;20024;-51
2023/11/25 04:22:10;;;;;;;12.38;7.57;;;;;;;;;;5074834;28;20025;-49
2023/11/25 04:24:38;;;;;;;13.02;5.60;;;;;;;;;;5074723;28;20032;-51
2023/11/25 04:27:04;;;;;;;9.00;5.30;;;;;;;;;;5075185;28;20026;-47
2023/11/25 04:29:31;;;;;;;9.40;5.40;;;;;;;;;;5073714;28;20123;-48
2023/11/25 04:31:57;;;;;;;7.88;4.70;;;;;;;;;;5072122;28;20388;-47
2023/11/25 04:34:23;;;;;;;8.45;4.97;;;;;;;;;;5072598;28;20111;-52
2023/11/25 04:36:50;;;;;;;7.85;4.65;;;;;;;;;;5072354;28;20543;-47
2023/11/25 04:39:16;;;;;;;8.30;4.90;;;;;;;;;;5070967;28;20024;-49
2023/11/25 04:41:42;;;;;;;7.93;4.70;;;;;;;;;;5071985;28;20433;-49
2023/11/25 04:44:08;;;;;;;12.77;5.32;;;;;;;;;;5071017;28;20409;-47
2023/11/25 04:46:34;;;;;;;8.30;4.90;;;;;;;;;;5072559;28;20664;-52
2023/11/25 04:49:00;;;;;;;9.90;5.03;;;;;;;;;;5072472;28;20493;-47
2023/11/25 04:51:28;;;;;;;11.27;5.88;;;;;;;;;;5070905;28;20359;-50
2023/11/25 04:53:54;;;;;;;10.00;5.75;;;;;;;;;;5072760;28;20486;-53
2023/11/25 04:56:20;;;;;;;8.35;4.93;;;;;;;;;;5072297;28;20048;-50
2023/11/25 04:58:46;;;;;;;8.75;5.10;;;;;;;;;;5072691;28;20042;-54
2023/11/25 05:01:12;;;;;;;8.23;4.88;;;;;;;;;;5072360;28;20056;-48
2023/11/25 05:03:38;;;;;;;8.05;4.78;;;;;;;;;;5071974;28;20367;-52
2023/11/25 05:06:09;;;;;;;9.82;5.72;;;;;;;;;;5072211;28;20563;-54
2023/11/25 05:08:35;;;;;;;8.57;4.97;;;;;;;;;;5073656;28;20024;-49
2023/11/25 05:11:01;;;;;;;7.90;4.70;;;;;;;;;;5071552;28;20017;-49
2023/11/25 05:13:27;;;;;;;8.30;4.80;;;;;;;;;;5071829;28;20025;-48
2023/11/25 05:15:53;;;;;;;11.07;6.80;;;;;;;;;;5072656;28;20021;-47
2023/11/25 05:18:19;;;;;;;12.93;5.57;;;;;;;;;;5072980;28;20128;-50
2023/11/25 05:20:45;;;;;;;10.63;5.22;;;;;;;;;;5073441;28;20032;-53
2023/11/25 05:23:11;;;;;;;14.88;7.38;;;;;;;;;;5072400;28;20548;-46
2023/11/25 05:25:37;;;;;;;8.02;4.80;;;;;;;;;;5073866;28;20052;-48
2023/11/25 05:28:03;;;;;;;9.15;5.28;;;;;;;;;;5074176;28;20017;-50
2023/11/25 05:30:29;;;;;;;9.73;5.35;;;;;;;;;;5072863;28;20039;-56
2023/11/25 05:32:55;;;;;;;9.43;5.50;;;;;;;;;;5073923;28;20428;-49
2023/11/25 05:35:21;;;;;;;8.80;5.20;;;;;;;;;;5074109;28;20029;-51
2023/11/25 05:37:48;;;;;;;9.00;5.25;;;;;;;;;;5073408;28;20105;-50
2023/11/25 05:40:14;;;;;;;8.60;5.10;;;;;;;;;;5073217;28;20039;-50
2023/11/25 05:42:47;;;;;;;11.32;6.43;;;;;;;;;;5073305;28;20025;-52
2023/11/25 05:45:13;;;;;;;9.27;5.30;;;;;;;;;;5073768;28;20038;-52
2023/11/25 05:47:39;;;;;;;17.83;6.93;;;;;;;;;;5073838;28;20099;-51
2023/11/25 05:50:06;;;;;;;10.20;6.10;;;;;;;;;;5070758;28;20020;-53
2023/11/25 05:52:32;;;;;;;10.40;5.88;;;;;;;;;;5072980;28;20074;-53
2023/11/25 05:54:58;;;;;;;9.70;5.68;;;;;;;;;;5072664;28;20050;-49
2023/11/25 05:57:24;;;;;;;12.43;6.32;;;;;;;;;;5091376;22;20052;-48
2023/11/25 05:59:50;;;;;;;9.93;6.03;;;;;;;;;;5051954;28;20024;-50
2023/11/25 06:02:16;;;;;;;11.60;7.80;;;;;;;;;;5052675;28;20033;-51
2023/11/25 06:04:43;;;;;;;9.18;5.40;;;;;;;;;;5070787;28;20060;-52
2023/11/25 06:07:09;;;;;;;9.52;5.60;;;;;;;;;;5070537;28;20017;-54
2023/11/25 06:09:35;;;;;;;13.32;6.15;;;;;;;;;;5070279;28;20032;-49
2023/11/25 06:12:01;;;;;;;9.93;5.63;;;;;;;;;;5069947;28;20073;-50
2023/11/25 06:14:28;;;;;;;8.73;5.13;;;;;;;;;;5069305;28;20036;-51
2023/11/25 06:16:56;;;;;;;9.18;5.40;;;;;;;;;;5070112;28;20026;-49
2023/11/25 06:19:22;;;;;;;12.32;5.80;;;;;;;;;;5069182;28;20028;-51
2023/11/25 06:21:48;;;;;;;9.75;5.47;;;;;;;;;;5070046;28;20540;-53
2023/11/25 06:24:15;;;;;;;9.18;6.00;;;;;;;;;;5070385;28;20056;-51
2023/11/25 06:26:42;;;;;;;8.65;5.07;;;;;;;;;;5070268;28;20025;-51
2023/11/25 06:29:09;;;;;;;9.00;5.30;;;;;;;;;;5070401;28;20439;-53
2023/11/25 06:31:36;;;;;;;8.40;4.97;;;;;;;;;;5069591;28;20056;-54
2023/11/25 06:34:03;;;;;;;10.45;5.20;;;;;;;;;;5070131;28;20581;-53
2023/11/25 06:36:30;;;;;;;8.60;5.10;;;;;;;;;;5069920;28;20405;-50
2023/11/25 06:38:56;;;;;;;15.30;5.75;;;;;;;;;;5070129;28;20048;-51
2023/11/25 06:41:25;;;;;;;12.75;6.20;;;;;;;;;;5069508;28;20458;-52
2023/11/25 06:43:51;;;;;;;8.80;5.20;;;;;;;;;;5070010;28;20020;-51
2023/11/25 06:46:17;;;;;;;9.07;5.47;;;;;;;;;;5070067;28;20437;-52
2023/11/25 06:48:43;;;;;;;9.48;5.63;;;;;;;;;;5068750;28;20064;-52
2023/11/25 06:51:11;;;;;;;9.00;5.32;;;;;;;;;;5069380;28;20055;-52
2023/11/25 06:53:39;;;;;;;9.18;5.38;;;;;;;;;;5070005;28;20460;-49
2023/11/25 06:56:09;;;;;;;10.68;5.68;;;;;;;;;;5069832;28;20037;-49
2023/11/25 06:58:35;;;;;;;10.10;6.00;;;;;;;;;;5070327;28;20032;-52
2023/11/25 07:01:04;;;;;;;8.60;5.10;;;;;;;;;;5069523;28;20365;-51
2023/11/25 07:03:30;;;;;;;9.55;5.68;;;;;;;;;;5070261;28;20027;-51
2023/11/25 07:05:57;;;;;;;11.05;6.03;;;;;;;;;;5069841;28;20031;-50
2023/11/25 07:08:24;;;;;;;10.85;5.85;;;;;;;;;;5070015;28;20100;-52
2023/11/25 07:10:53;;;;;;;12.00;6.20;;;;;;;;;;5068999;28;20028;-54
2023/11/25 07:13:24;;;;;;;9.88;5.80;;;;;;;;;;5069940;28;20025;-52
2023/11/25 07:15:50;;;;;;;9.07;5.38;;;;;;;;;;5068345;28;20043;-49
2023/11/25 07:18:18;;;;;;;8.93;5.22;;;;;;;;;;5069833;28;20444;-56
2023/11/25 07:20:44;;;;;;;;;;;;;;;;;;5069297;28;20024;-54
2023/11/25 07:23:10;;;;;;;9.07;5.40;;;;;;;;;;5069468;28;19911;-54
2023/11/25 07:25:37;;;;;;;8.93;5.22;;;;;;;;;;5069901;28;20028;-51
2023/11/25 07:28:03;;;;;;;9.30;5.45;;;;;;;;;;5064208;28;20016;-50
2023/11/25 07:30:30;;;;;;;9.23;5.45;;;;;;;;;;5067714;28;20013;-53
2023/11/25 07:32:56;;;;;;;9.50;5.55;;;;;;;;;;5053284;28;20085;-54
2023/11/25 07:35:22;;;;;;;10.27;6.00;;;;;;;;;;5060038;28;20141;-49
2023/11/25 07:37:48;;;;;;;11.30;5.70;;;;;;;;;;5071997;28;20025;-53
2023/11/25 07:40:14;;;;;;;9.55;5.65;;;;;;;;;;5071310;28;21256;-50
2023/11/25 07:42:43;;;;;;;10.38;5.60;;;;;;;;;;5073117;28;20024;-49
2023/11/25 07:45:09;;;;;;;9.80;5.80;;;;;;;;;;5054195;28;20109;-52
2023/11/25 07:47:35;;;;;;;10.00;5.70;;;;;;;;;;5053000;28;20029;-49
2023/11/25 07:50:01;;;;;;;12.02;5.90;;;;;;;;;;5052312;28;20467;-51
2023/11/25 07:52:28;;;;;;;10.82;5.72;;;;;;;;;;5053023;28;20052;-51
2023/11/25 07:54:54;;;;;;;9.43;5.45;;;;;;;;;;5051896;28;20035;-56
2023/11/25 07:57:20;;;;;;;9.23;5.43;;;;;;;;;;5052762;28;20037;-52
2023/11/25 07:59:46;;;;;;;9.10;5.38;;;;;;;;;;5052734;28;20025;-52
2023/11/25 08:02:13;;;;;;;9.10;5.30;;;;;;;;;;5070471;28;20608;-49
2023/11/25 08:04:39;;;;;;;9.75;5.70;;;;;;;;;;5072558;28;20033;-53
2023/11/25 08:07:06;;;;;;;9.32;5.50;;;;;;;;;;5072601;28;20027;-52
2023/11/25 08:09:32;;;;;;;11.15;5.70;;;;;;;;;;5072450;28;20112;-55
2023/11/25 08:11:58;;;;;;;9.50;5.40;;;;;;;;;;5070857;28;20490;-53
2023/11/25 08:14:25;;;;;;;9.88;5.78;;;;;;;;;;5072328;28;20036;-49
2023/11/25 08:16:51;;;;;;;10.55;5.80;;;;;;;;;;5072190;28;20025;-52
2023/11/25 08:19:21;;;;;;;10.00;5.70;;;;;;;;;;5072197;28;20027;-53
2023/11/25 08:21:48;;;;;;;9.13;5.40;;;;;;;;;;5072035;28;20032;-51
2023/11/25 08:24:15;;;;;;;13.63;6.68;;;;;;;;;;5072315;28;20073;-55
2023/11/25 08:26:41;;;;;;;9.88;5.55;;;;;;;;;;5072200;28;20552;-54
2023/11/25 08:29:07;;;;;;;9.10;5.30;;;;;;;;;;5070865;28;20063;-49
2023/11/25 08:31:33;;;;;;;9.70;5.40;;;;;;;;;;5071243;28;20024;-51
2023/11/25 08:34:04;;;;;;;11.20;6.50;;;;;;;;;;5070580;28;20021;-52
2023/11/25 08:36:30;;;;;;;13.80;8.75;;;;;;;;;;5070723;28;20031;-54
2023/11/25 08:38:58;;;;;;;18.08;10.25;;;;;;;;;;5070832;28;20024;-54
2023/11/25 08:41:24;;;;;;;14.55;11.30;;;;;;;;;;5071121;28;20033;-52
2023/11/25 08:43:50;;;;;;;16.25;13.60;;;;;;;;;;5071568;28;20516;-50
2023/11/25 08:46:19;;;;;;;15.50;13.68;;;;;;;;;;5071538;28;20115;-50
2023/11/25 08:48:45;;;;;;;16.15;14.45;;;;;;;;;;5071737;28;20052;-54
2023/11/25 08:51:11;;;;;;;15.70;14.00;;;;;;;;;;5071405;28;20047;-54
2023/11/25 08:53:38;;;;;;;18.10;16.30;;;;;;;;;;5071873;28;20025;-49
2023/11/25 08:56:06;;;;;;;16.52;14.82;;;;;;;;;;5070532;28;20035;-54
2023/11/25 08:58:32;;;;;;;16.20;14.50;;;;;;;;;;5071752;28;20071;-50
2023/11/25 09:00:58;;;;;;;17.70;15.90;;;;;;;;;;5064883;28;20037;-54
2023/11/25 09:03:24;;;;;;;23.65;21.55;;;;;;;;;;5051521;28;20025;-53
2023/11/25 09:05:50;;;;;;;23.05;21.00;;;;;;;;;;5051417;28;20017;-53
2023/11/25 09:08:16;;;;;;;23.80;21.70;;;;;;;;;;5051468;28;20021;-53
2023/11/25 09:10:43;;;;;;;25.00;22.80;;;;;;;;;;5050643;28;20028;-53
2023/11/25 09:13:09;;;;;;;24.75;22.55;;;;;;;;;;5051128;28;20082;-49
2023/11/25 09:15:35;;;;;;;24.30;22.20;;;;;;;;;;5051066;28;20880;-52
2023/11/25 09:18:01;;;;;;;23.88;21.77;;;;;;;;;;5050850;28;20493;-52
2023/11/25 09:20:27;;;;;;;23.80;21.70;;;;;;;;;;5050611;28;20036;-50
2023/11/25 09:22:53;;;;;;;24.63;22.42;;;;;;;;;;5051201;28;20103;-51
2023/11/25 09:25:19;;;;;;;24.95;22.75;;;;;;;;;;5050991;28;20115;-54
2023/11/25 09:27:46;;;;;;;26.05;23.70;;;;;;;;;;5051052;28;20017;-48
2023/11/25 09:30:13;;;;;;;26.10;23.80;;;;;;;;;;5069747;28;20041;-49
2023/11/25 09:32:39;;;;;;;25.95;23.65;;;;;;;;;;5070536;28;20103;-50
2023/11/25 09:35:06;;;;;;;25.52;23.23;;;;;;;;;;5070748;28;20108;-48
2023/11/25 09:37:33;;;;;;;25.43;23.13;;;;;;;;;;5070541;28;20024;-51
2023/11/25 09:39:59;;;;;;;25.13;22.85;;;;;;;;;;5070056;28;20269;-49
2023/11/25 09:42:25;;;;;;;25.90;23.50;;;;;;;;;;5070580;28;20021;-50
2023/11/25 09:44:51;;;;;;;23.88;21.67;;;;;;;;;;5070640;28;20024;-46
2023/11/25 09:47:17;;;;;;;23.50;21.30;;;;;;;;;;5070549;28;20363;-50
2023/11/25 09:49:43;;;;;;;23.05;20.85;;;;;;;;;;5070624;28;20130;-50
2023/11/25 09:52:10;;;;;;;22.48;20.38;;;;;;;;;;5069516;28;20025;-45
2023/11/25 09:54:36;;;;;;;22.58;20.48;;;;;;;;;;5069383;28;20128;-52
2023/11/25 09:57:06;;;;;;;22.83;20.65;;;;;;;;;;5070348;28;20494;-49
2023/11/25 09:59:32;;;;;;;22.85;20.67;;;;;;;;;;5068861;28;20037;-47
2023/11/25 10:01:58;;;;;;;23.00;20.80;;;;;;;;;;5069929;28;20032;-46
2023/11/25 10:04:27;;;;;;;22.65;20.55;;;;;;;;;;5069765;28;20056;-50
2023/11/25 10:06:54;;;;;;;22.48;20.38;;;;;;;;;;5070068;28;20023;-46
2023/11/25 10:09:21;;;;;;;21.10;19.00;;;;;;;;;;5069771;28;20021;-50
2023/11/25 10:11:47;;;;;;;19.77;17.88;;;;;;;;;;5069686;28;20020;-47
2023/11/25 10:14:13;;;;;;;19.63;17.73;;;;;;;;;;5084177;28;20036;-49
2023/11/25 10:16:43;;;;;;;20.25;18.35;;;;;;;;;;5090351;28;20126;-49
2023/11/25 10:19:19;;;;;;;20.60;18.70;;;;;;;;;;5089151;28;20110;-48
2023/11/25 10:21:46;;;;;;;19.80;17.90;;;;;;;;;;5089876;28;20024;-49
2023/11/25 10:24:13;;;;;;;19.70;17.80;;;;;;;;;;5092732;28;20028;-51
2023/11/25 10:26:40;;;;;;;20.05;18.15;;;;;;;;;;5092947;28;20027;-50
2023/11/25 10:29:07;;;;;;;20.75;18.70;;;;;;;;;;5069157;28;20022;-47
2023/11/25 10:31:33;;;;;;;19.70;17.80;;;;;;;;;;5049262;28;20033;-51
2023/11/25 10:33:59;;;;;;;19.92;18.02;;;;;;;;;;5050019;28;20064;-53
2023/11/25 10:36:25;;;;;;;20.00;18.10;;;;;;;;;;5049803;28;20025;-52
2023/11/25 10:38:53;;;;;;;19.77;17.88;;;;;;;;;;5050047;28;20083;-47
2023/11/25 10:41:19;;;;;;;19.83;17.92;;;;;;;;;;5049255;28;20025;-52
2023/11/25 10:43:45;;;;;;;20.02;18.13;;;;;;;;;;5048700;28;20499;-52
2023/11/25 10:46:11;;;;;;;19.70;17.80;;;;;;;;;;5048852;28;20116;-53
2023/11/25 10:48:41;;;;;;;19.65;17.75;;;;;;;;;;5050028;28;20064;-47
2023/11/25 10:51:08;;;;;;;19.00;17.20;;;;;;;;;;5049342;28;20037;-49
2023/11/25 10:53:36;;;;;;;19.25;17.35;;;;;;;;;;5049723;28;20022;-51
2023/11/25 10:56:03;;;;;;;;;;;;;;;;;;5049627;28;20074;-49
2023/11/25 10:58:30;;;;;;;19.35;17.45;;;;;;;;;;5049776;28;20569;-48
2023/11/25 11:00:57;;;;;;;18.52;16.73;;;;;;;;;;5048626;28;20164;-52
2023/11/25 11:03:43;;;;;;;19.17;17.27;;;;;;;;;;5051981;28;20085;-51
2023/11/25 11:06:11;;;;;;;21.23;18.00;;;;;;;;;;5022272;28;20063;-52
2023/11/25 11:08:40;;;;;;;18.80;17.00;;;;;;;;;;5053795;28;20018;-52
2023/11/25 11:11:07;;;;;;;;;;;;;;;;;;5053427;28;20410;-53
2023/11/25 11:13:40;;;;;;;19.77;17.88;;;;;;;;;;5053507;28;20051;-51
2023/11/25 11:16:30;;;;;;;19.98;18.08;;;;;;;;;;5052070;28;20154;-53
2023/11/25 11:18:57;;;;;;;18.52;16.73;;;;;;;;;;5045290;28;20025;-48
2023/11/25 11:21:26;;;;;;;18.17;16.38;;;;;;;;;;5053142;28;20100;-49
2023/11/25 11:23:52;;;;;;;18.65;16.85;;;;;;;;;;5051904;28;20021;-49
2023/11/25 11:26:32;;;;;;;18.02;14.65;;;;;;;;;;5053183;28;20171;-53
2023/11/25 11:28:58;;;;;;;14.38;10.95;;;;;;;;;;5063691;28;20413;-54
2023/11/25 11:31:43;;;;;;;14.95;11.60;;;;;;;;;;5072186;28;20064;-51
2023/11/25 11:34:09;;;;;;;14.60;11.05;;;;;;;;;;5073109;28;20073;-48
2023/11/25 11:36:36;;;;;;;14.43;11.13;;;;;;;;;;5059587;28;20045;-50
2023/11/25 11:39:02;;;;;;;18.45;12.65;;;;;;;;;;5054774;28;20071;-49
2023/11/25 11:41:29;;;;;;;25.17;15.77;;;;;;;;;;5072487;28;20493;-51
2023/11/25 11:44:02;;;;;;;16.08;14.38;;;;;;;;;;5073010;28;20020;-48
2023/11/25 11:46:29;;;;;;;15.70;13.73;;;;;;;;;;5072960;28;20013;-48
2023/11/25 11:48:56;;;;;;;17.25;15.43;;;;;;;;;;5073148;28;20021;-48
2023/11/25 11:51:23;;;;;;;18.17;16.38;;;;;;;;;;5070888;28;20024;-47
2023/11/25 11:54:09;;;;;;;20.17;18.00;;;;;;;;;;5071621;28;20031;-50
2023/11/25 11:56:54;;;;;;;17.95;16.15;;;;;;;;;;5085074;22;20056;-57
2023/11/25 11:59:20;;;;;;;17.95;16.15;;;;;;;;;;5071292;28;20043;-52
2023/11/25 12:01:46;;;;;;;15.80;14.10;;;;;;;;;;5070983;28;20017;-57
2023/11/25 12:04:13;;;;;;;15.63;13.20;;;;;;;;;;5071547;28;20039;-56
2023/11/25 12:06:39;;;;;;;15.10;12.65;;;;;;;;;;5070412;28;20398;-54
2023/11/25 12:09:05;;;;;;;16.40;12.77;;;;;;;;;;5071339;28;20024;-55
2023/11/25 12:11:31;;;;;;;15.40;13.43;;;;;;;;;;5070403;28;20405;-55
2023/11/25 12:13:57;;;;;;;15.90;14.20;;;;;;;;;;5070306;28;20070;-53
2023/11/25 12:16:23;;;;;;;19.30;17.30;;;;;;;;;;5069724;28;20165;-56
2023/11/25 12:18:49;;;;;;;20.00;18.10;;;;;;;;;;5070849;28;20413;-55
2023/11/25 12:21:15;;;;;;;20.42;18.52;;;;;;;;;;5068733;28;20417;-55
2023/11/25 12:23:41;;;;;;;21.58;19.58;;;;;;;;;;5071039;28;20387;-54
2023/11/25 12:26:08;;;;;;;22.67;20.67;;;;;;;;;;5070646;28;20035;-52
2023/11/25 12:28:42;;;;;;;22.13;20.13;;;;;;;;;;5070617;28;20016;-56
2023/11/25 12:31:10;;;;;;;19.52;17.63;;;;;;;;;;5069456;28;20028;-55
2023/11/25 12:33:36;;;;;;;20.95;18.92;;;;;;;;;;5069820;28;20024;-55
2023/11/25 12:36:02;;;;;;;18.85;17.05;;;;;;;;;;5071007;28;20056;-51
2023/11/25 12:38:31;;;;;;;21.27;19.17;;;;;;;;;;5071302;28;20088;-54
2023/11/25 12:40:57;;;;;;;24.42;17.90;;;;;;;;;;5070140;28;20210;-53
2023/11/25 12:43:23;;;;;;;19.00;17.20;;;;;;;;;;5070547;28;20020;-53
2023/11/25 12:45:49;;;;;;;18.85;17.05;;;;;;;;;;5069344;28;20028;-53
2023/11/25 12:48:29;;;;;;;20.50;18.60;;;;;;;;;;5070812;28;20021;-56
2023/11/25 12:51:00;;;;;;;23.70;21.60;;;;;;;;;;4716954;28;10000342;-54
2023/11/25 12:53:27;;;;;;;25.05;22.85;;;;;;;;;;5055153;28;20029;-54
2023/11/25 12:55:53;;;;;;;23.63;21.52;;;;;;;;;;5062929;28;20029;-55
2023/11/25 12:58:20;;;;;;;23.73;21.52;;;;;;;;;;5047864;28;20056;-57
2023/11/25 13:00:50;;;;;;;22.35;20.35;;;;;;;;;;5052789;28;20032;-53
2023/11/25 13:03:31;;;;;;;20.30;18.30;;;;;;;;;;5066854;28;20088;-58
2023/11/25 13:06:01;;;;;;;20.45;17.63;;;;;;;;;;5067396;28;20438;-56
2023/11/25 13:08:28;;;;;;;18.77;16.98;;;;;;;;;;5066550;28;20016;-55
2023/11/25 13:10:57;;;;;;;19.55;16.00;;;;;;;;;;5048754;28;20020;-56
2023/11/25 13:13:27;;;;;;;17.60;15.80;;;;;;;;;;5066265;28;20016;-55
2023/11/25 13:15:54;;;;;;;16.80;15.00;;;;;;;;;;5065461;28;20016;-54
2023/11/25 13:18:23;;;;;;;17.42;15.10;;;;;;;;;;5053894;28;20391;-55
2023/11/25 13:20:50;;;;;;;15.70;13.85;;;;;;;;;;5064828;28;20021;-54
2023/11/25 13:23:17;;;;;;;15.90;14.20;;;;;;;;;;5066547;28;20059;-53
2023/11/25 13:25:43;;;;;;;15.82;14.13;;;;;;;;;;5067180;28;20475;-56
2023/11/25 13:28:09;;;;;;;16.05;14.35;;;;;;;;;;5064705;28;20427;-56
2023/11/25 13:30:35;;;;;;;16.17;14.48;;;;;;;;;;5051972;28;20032;-53
2023/11/25 13:33:01;;;;;;;16.67;14.88;;;;;;;;;;5047490;28;20032;-54
2023/11/25 13:35:29;;;;;;;16.15;14.45;;;;;;;;;;5047424;28;20036;-52
2023/11/25 13:37:58;;;;;;;16.17;14.48;;;;;;;;;;5045832;28;20029;-52
2023/11/25 13:40:29;;;;;;;16.42;14.50;;;;;;;;;;5046138;28;20033;-54
2023/11/25 13:42:55;;;;;;;16.10;14.40;;;;;;;;;;5045641;28;20036;-52
2023/11/25 13:45:23;;;;;;;16.10;14.40;;;;;;;;;;5046488;28;20032;-52
2023/11/25 13:47:49;;;;;;;16.67;14.90;;;;;;;;;;5046277;28;20108;-51
2023/11/25 13:50:15;;;;;;;16.13;14.43;;;;;;;;;;5045660;28;20712;-52
2023/11/25 13:52:41;;;;;;;15.95;14.25;;;;;;;;;;5045827;28;20036;-55
2023/11/25 13:55:09;;;;;;;15.70;13.95;;;;;;;;;;5046606;28;20514;-55
2023/11/25 13:57:36;;;;;;;17.35;15.02;;;;;;;;;;5046413;28;20036;-54
2023/11/25 14:00:02;;;;;;;16.55;14.75;;;;;;;;;;5044940;28;20029;-56
2023/11/25 14:02:30;;;;;;;14.45;11.15;;;;;;;;;;5047934;28;20029;-55
2023/11/25 14:04:56;;;;;;;14.60;11.32;;;;;;;;;;5047912;28;20395;-53
2023/11/25 14:07:22;;;;;;;20.23;10.73;;;;;;;;;;5047729;28;20134;-51
2023/11/25 14:09:48;;;;;;;21.70;12.20;;;;;;;;;;5047148;28;20127;-58
2023/11/25 14:12:14;;;;;;;14.60;11.10;;;;;;;;;;5046318;28;20017;-53
2023/11/25 14:14:40;;;;;;;14.23;10.50;;;;;;;;;;4710622;28;10000144;-56
2023/11/25 14:17:10;;;;;;;14.30;10.90;;;;;;;;;;5064674;28;20029;-53
2023/11/25 14:19:37;;;;;;;15.00;11.18;;;;;;;;;;5065896;28;20036;-52
2023/11/25 14:22:03;;;;;;;14.30;10.40;;;;;;;;;;5065842;28;20601;-56
2023/11/25 14:24:30;;;;;;;14.25;10.45;;;;;;;;;;5064611;28;20061;-55
2023/11/25 14:26:56;;;;;;;18.42;10.90;;;;;;;;;;5065820;28;20176;-54